DEA weather

Dera Ghazi Khan Airport
Dera Ghazi Khan, Punjab, Pakistan

Public forecast

Using degrees Celsius for public forecast. Weather courtesy of forecast.io.

Closest aviation weather report (METAR) to Dera Ghazi Khan Airport

Closest report is Multan International Airport, 50.6 nm (93.7 km) ENE. Retrieved 2020/05/26 19:00 UTC (54 minutes ago):

OPMT 261900Z 00000KT 4000 HZ NSC 34/20 Q0998 NOSIG

Aviation forecast (TAF) for Dera Ghazi Khan Airport

Forecast is more than 12 hours old.

Retrieved 2020/05/25 06:00 UTC (2 days ago):

TAF OPDG 250400Z 2506/2524 18010KT 5000 HZ NSC TX44/2510Z